createdAt,value
2022-10-24T00:02:24.659Z,13.08
2022-10-24T00:04:51.102Z,13.08
2022-10-24T00:07:17.563Z,12.99
2022-10-24T00:09:43.985Z,12.97
2022-10-24T00:12:10.593Z,12.98
2022-10-24T00:14:37.827Z,13.00
2022-10-24T00:17:04.713Z,12.99
2022-10-24T00:19:31.074Z,12.83
2022-10-24T00:21:57.487Z,12.94
2022-10-24T00:24:25.118Z,13.03
2022-10-24T00:26:52.294Z,13.04
2022-10-24T00:29:18.919Z,12.93
2022-10-24T00:31:45.351Z,12.91
2022-10-24T00:34:12.049Z,12.82
2022-10-24T00:36:38.665Z,12.80
2022-10-24T00:39:05.119Z,12.70
2022-10-24T00:41:38.242Z,12.61
2022-10-24T00:44:33.093Z,12.66
2022-10-24T00:47:08.080Z,12.48
2022-10-24T00:50:02.034Z,12.52
2022-10-24T00:52:34.534Z,12.47
2022-10-24T00:55:02.910Z,12.42
2022-10-24T00:57:50.152Z,12.46
2022-10-24T01:00:21.341Z,12.41
2022-10-24T01:02:48.180Z,12.39
2022-10-24T01:05:15.449Z,12.45
2022-10-24T01:08:05.666Z,12.47
2022-10-24T01:10:48.892Z,12.31
2022-10-24T01:13:41.627Z,12.45
2022-10-24T01:16:18.433Z,12.37
2022-10-24T01:21:30.623Z,12.43
2022-10-24T01:24:31.103Z,12.34
2022-10-24T01:27:19.280Z,12.27
2022-10-24T01:29:53.054Z,12.37
2022-10-24T01:32:36.767Z,12.22
2022-10-24T01:35:16.762Z,12.16
2022-10-24T01:37:53.148Z,12.22
2022-10-24T01:40:29.932Z,12.24
2022-10-24T01:43:00.708Z,12.24
2022-10-24T01:45:33.130Z,12.34
2022-10-24T01:48:03.443Z,12.11
2022-10-24T01:50:32.543Z,12.08
2022-10-24T01:52:59.676Z,11.98
2022-10-24T01:55:26.102Z,11.92
2022-10-24T01:57:52.463Z,12.00
2022-10-24T02:00:22.128Z,12.07
2022-10-24T02:02:59.968Z,11.93
2022-10-24T02:05:34.663Z,12.12
2022-10-24T02:08:06.245Z,12.14
2022-10-24T02:10:38.331Z,11.90
2022-10-24T02:13:42.216Z,11.81
2022-10-24T02:16:09.537Z,11.86
2022-10-24T02:18:35.981Z,11.90
2022-10-24T02:21:19.368Z,11.81
2022-10-24T02:24:02.736Z,11.98
2022-10-24T02:26:46.842Z,12.00
2022-10-24T02:29:24.682Z,12.11
2022-10-24T02:31:55.113Z,12.10
2022-10-24T02:34:24.195Z,12.14
2022-10-24T02:36:53.560Z,12.02
2022-10-24T02:39:21.009Z,12.00
2022-10-24T02:41:50.069Z,11.94
2022-10-24T02:44:19.123Z,11.98
2022-10-24T02:46:46.929Z,12.01
2022-10-24T02:49:13.628Z,11.79
2022-10-24T02:51:43.626Z,11.72
2022-10-24T02:54:11.060Z,11.81
2022-10-24T02:56:43.188Z,11.76
2022-10-24T03:01:41.011Z,11.70
2022-10-24T03:04:07.448Z,11.77
2022-10-24T03:06:33.827Z,11.81
2022-10-24T03:09:00.264Z,11.77
2022-10-24T03:11:26.900Z,11.90
2022-10-24T03:13:53.314Z,11.96
2022-10-24T03:16:19.681Z,11.96
2022-10-24T03:18:46.250Z,11.99
2022-10-24T03:21:12.958Z,12.02
2022-10-24T03:23:39.383Z,12.06
2022-10-24T03:26:06.054Z,12.06
2022-10-24T03:28:34.704Z,12.08
2022-10-24T03:31:01.078Z,12.03
2022-10-24T03:33:27.470Z,12.07
2022-10-24T03:35:54.721Z,12.10
2022-10-24T03:38:22.735Z,12.11
2022-10-24T03:40:49.867Z,12.15
2022-10-24T03:43:16.866Z,12.12
2022-10-24T03:45:43.552Z,12.05
2022-10-24T03:48:09.989Z,12.04
2022-10-24T03:50:36.428Z,11.98
2022-10-24T03:53:03.724Z,12.08
2022-10-24T03:55:30.146Z,11.99
2022-10-24T03:57:56.739Z,11.89
2022-10-24T04:00:23.492Z,11.91
2022-10-24T04:02:52.628Z,11.95
2022-10-24T04:05:19.036Z,11.92
2022-10-24T04:07:45.603Z,11.92
2022-10-24T04:10:12.263Z,11.86
2022-10-24T04:12:38.722Z,11.89
2022-10-24T04:15:05.773Z,11.94
2022-10-24T04:17:32.767Z,11.82
2022-10-24T04:19:59.156Z,11.83
2022-10-24T04:22:25.582Z,11.83
2022-10-24T04:24:51.958Z,11.86
2022-10-24T04:27:18.454Z,11.89
2022-10-24T04:29:44.842Z,11.88
2022-10-24T04:32:11.203Z,11.90
2022-10-24T04:34:37.581Z,11.86
2022-10-24T04:37:04.405Z,11.90
2022-10-24T04:39:30.795Z,11.86
2022-10-24T04:41:57.301Z,11.70
2022-10-24T04:44:23.835Z,11.85
2022-10-24T04:46:51.546Z,11.88
2022-10-24T04:49:18.354Z,11.99
2022-10-24T04:51:44.815Z,12.01
2022-10-24T04:54:11.262Z,11.96
2022-10-24T04:56:37.714Z,11.86
2022-10-24T04:59:04.324Z,11.90
2022-10-24T05:01:30.756Z,12.00
2022-10-24T05:03:57.303Z,12.10
2022-10-24T05:06:23.721Z,12.19
2022-10-24T05:08:50.094Z,12.26
2022-10-24T05:11:16.612Z,12.34
2022-10-24T05:13:43.053Z,12.38
2022-10-24T05:16:09.566Z,12.44
2022-10-24T05:18:35.979Z,12.51
2022-10-24T05:21:02.441Z,12.52
2022-10-24T05:23:28.901Z,12.59
2022-10-24T05:25:55.394Z,12.62
2022-10-24T05:28:21.860Z,12.66
2022-10-24T05:30:48.266Z,12.66
2022-10-24T05:33:14.708Z,12.68
2022-10-24T05:35:41.687Z,12.66
2022-10-24T05:38:08.298Z,12.64
2022-10-24T05:40:34.723Z,12.69
2022-10-24T05:43:01.117Z,12.67
2022-10-24T05:45:27.478Z,12.60
2022-10-24T05:47:53.834Z,12.62
2022-10-24T05:50:20.249Z,12.62
2022-10-24T05:52:47.313Z,12.59
2022-10-24T05:55:16.995Z,12.64
2022-10-24T05:57:45.631Z,12.64
2022-10-24T06:00:14.962Z,12.57
2022-10-24T06:02:42.127Z,12.62
2022-10-24T06:05:09.909Z,12.63
2022-10-24T06:07:37.124Z,12.56
2022-10-24T06:10:04.919Z,12.59
2022-10-24T06:12:31.280Z,12.58
2022-10-24T06:14:58.840Z,12.51
2022-10-24T06:17:25.530Z,12.51
2022-10-24T06:19:51.970Z,12.49
2022-10-24T06:22:19.646Z,12.52
2022-10-24T06:24:46.061Z,12.49
2022-10-24T06:27:12.450Z,12.44
2022-10-24T06:29:38.799Z,12.48
2022-10-24T06:32:05.318Z,12.50
2022-10-24T06:34:31.872Z,12.53
2022-10-24T06:36:58.765Z,12.49
2022-10-24T06:39:25.214Z,12.62
2022-10-24T06:41:51.609Z,12.59
2022-10-24T06:44:18.010Z,12.62
2022-10-24T06:46:44.666Z,12.62
2022-10-24T06:49:13.114Z,12.61
2022-10-24T06:51:40.889Z,12.64
2022-10-24T06:54:07.599Z,12.63
2022-10-24T06:56:34.068Z,12.64
2022-10-24T06:59:00.454Z,12.71
2022-10-24T07:01:27.756Z,12.68
2022-10-24T07:03:54.699Z,12.71
2022-10-24T07:06:29.633Z,12.73
2022-10-24T07:08:59.214Z,12.65
2022-10-24T07:11:26.778Z,12.65
2022-10-24T07:13:55.352Z,12.69
2022-10-24T07:16:25.361Z,12.69
2022-10-24T07:18:51.764Z,12.69
2022-10-24T07:21:21.187Z,12.75
2022-10-24T07:23:47.709Z,12.78
2022-10-24T07:26:16.516Z,12.74
2022-10-24T07:28:46.396Z,12.77
2022-10-24T07:31:16.316Z,12.81
2022-10-24T07:33:42.898Z,12.82
2022-10-24T07:36:09.792Z,12.88
2022-10-24T07:38:37.204Z,12.86
2022-10-24T07:41:05.250Z,12.83
2022-10-24T07:43:31.674Z,12.88
2022-10-24T07:45:58.089Z,12.94
2022-10-24T07:48:24.635Z,12.94
2022-10-24T07:50:51.066Z,12.96
2022-10-24T07:53:17.438Z,12.99
2022-10-24T07:55:44.734Z,13.01
2022-10-24T07:58:12.097Z,13.05
2022-10-24T08:00:44.055Z,13.03
2022-10-24T08:03:11.516Z,13.07
2022-10-24T08:05:39.706Z,13.08
2022-10-24T08:10:53.255Z,13.17
2022-10-24T08:13:20.179Z,13.20
2022-10-24T08:15:46.799Z,13.28
2022-10-24T08:18:13.233Z,13.34
2022-10-24T08:20:40.049Z,13.41
2022-10-24T08:23:06.794Z,13.46
2022-10-24T08:25:33.399Z,13.51
2022-10-24T08:28:00.928Z,13.57
2022-10-24T08:30:29.433Z,13.63
2022-10-24T08:32:55.925Z,13.69
2022-10-24T08:35:22.394Z,13.75
2022-10-24T08:37:48.973Z,13.77
2022-10-24T08:40:19.127Z,13.83
2022-10-24T08:42:48.037Z,13.87
2022-10-24T08:45:35.610Z,13.97
2022-10-24T08:48:08.339Z,14.02
2022-10-24T08:50:36.270Z,14.07
2022-10-24T08:53:05.542Z,14.16
2022-10-24T08:55:53.391Z,14.24
2022-10-24T08:58:35.312Z,14.34
2022-10-24T09:01:07.415Z,14.35
2022-10-24T09:03:56.107Z,14.43
2022-10-24T09:06:26.101Z,14.46
2022-10-24T09:08:55.689Z,14.54
2022-10-24T09:11:37.278Z,14.57
2022-10-24T09:14:18.638Z,14.63
2022-10-24T09:16:49.592Z,14.64
2022-10-24T09:19:20.584Z,14.72
2022-10-24T09:21:47.998Z,14.78
2022-10-24T09:24:32.394Z,14.93
2022-10-24T09:27:00.442Z,15.02
2022-10-24T09:29:32.353Z,15.09
2022-10-24T09:31:59.478Z,15.14
2022-10-24T09:34:26.070Z,15.22
2022-10-24T09:36:52.566Z,15.38
2022-10-24T09:39:28.117Z,15.55
2022-10-24T09:41:55.745Z,15.73
2022-10-24T09:44:33.103Z,15.87
2022-10-24T09:47:01.165Z,15.99
2022-10-24T09:49:46.500Z,16.09
2022-10-24T09:52:26.526Z,16.15
2022-10-24T09:55:21.464Z,16.21
2022-10-24T09:57:53.670Z,16.23
2022-10-24T10:00:29.207Z,16.30
2022-10-24T10:03:04.863Z,16.31
2022-10-24T10:05:54.507Z,16.41
2022-10-24T10:08:30.283Z,16.56
2022-10-24T10:10:58.701Z,16.67
2022-10-24T10:13:27.701Z,16.76
2022-10-24T10:15:59.158Z,16.74
2022-10-24T10:18:43.084Z,16.63
2022-10-24T10:21:16.201Z,16.59
2022-10-24T10:23:44.582Z,16.61
2022-10-24T10:26:24.672Z,16.67
2022-10-24T10:29:01.482Z,16.62
2022-10-24T10:31:39.107Z,16.70
2022-10-24T10:34:32.240Z,16.77
2022-10-24T10:37:06.293Z,16.77
2022-10-24T10:39:41.877Z,16.81
2022-10-24T10:42:19.011Z,16.69
2022-10-24T10:44:54.999Z,16.59
2022-10-24T10:47:39.880Z,16.44
2022-10-24T10:50:26.539Z,16.44
2022-10-24T10:52:58.880Z,16.35
2022-10-24T10:55:42.321Z,16.47
2022-10-24T10:58:17.757Z,16.42
2022-10-24T11:00:55.185Z,16.45
2022-10-24T11:03:24.603Z,16.37
2022-10-24T11:06:15.702Z,16.53
2022-10-24T11:09:09.701Z,16.79
2022-10-24T11:11:41.551Z,16.70
2022-10-24T11:14:38.754Z,16.81
2022-10-24T11:17:16.654Z,16.92
2022-10-24T11:20:08.489Z,17.06
2022-10-24T11:22:48.539Z,16.87
2022-10-24T11:25:34.880Z,16.71
2022-10-24T11:28:12.334Z,16.57
2022-10-24T11:30:49.687Z,16.44
2022-10-24T11:33:24.890Z,16.31
2022-10-24T11:36:08.201Z,16.20
2022-10-24T11:38:40.750Z,16.21
2022-10-24T11:41:23.910Z,16.58
2022-10-24T11:43:54.902Z,16.87
2022-10-24T11:46:30.703Z,17.22
2022-10-24T11:49:08.388Z,17.48
2022-10-24T11:51:40.428Z,17.71
2022-10-24T11:54:21.864Z,17.92
2022-10-24T11:57:11.366Z,18.09
2022-10-24T11:59:40.984Z,18.32
2022-10-24T12:02:50.160Z,18.55
2022-10-24T12:05:34.770Z,18.48
2022-10-24T12:08:21.949Z,18.52
2022-10-24T12:11:06.429Z,18.22
2022-10-24T12:16:59.500Z,17.92
2022-10-24T12:19:27.941Z,17.74
2022-10-24T12:21:58.519Z,17.63
2022-10-24T12:24:30.021Z,17.51
2022-10-24T12:27:02.754Z,17.39
2022-10-24T12:29:33.545Z,17.33
2022-10-24T12:32:24.159Z,17.21
2022-10-24T12:35:25.297Z,17.07
2022-10-24T12:37:46.932Z,16.92
2022-10-24T12:40:52.008Z,16.90
2022-10-24T12:43:30.575Z,16.82
2022-10-24T12:46:01.539Z,16.78
2022-10-24T12:48:34.041Z,16.76
2022-10-24T12:51:26.345Z,16.72
2022-10-24T12:54:18.176Z,16.66
2022-10-24T12:56:51.150Z,16.74
2022-10-24T12:59:22.138Z,16.73
2022-10-24T13:01:51.382Z,16.74
2022-10-24T13:04:51.423Z,16.69
2022-10-24T13:07:38.223Z,16.66
2022-10-24T13:10:15.233Z,16.62
2022-10-24T13:12:44.666Z,16.60
2022-10-24T13:15:30.218Z,16.63
2022-10-24T13:18:11.966Z,16.61
2022-10-24T13:20:44.438Z,16.62
2022-10-24T13:23:16.349Z,16.57
2022-10-24T13:25:44.067Z,16.55
2022-10-24T13:28:19.700Z,16.55
2022-10-24T13:30:49.616Z,16.53
2022-10-24T13:33:32.604Z,16.54
2022-10-24T13:36:26.985Z,16.52
2022-10-24T13:38:57.703Z,16.52
2022-10-24T13:41:44.205Z,16.51
2022-10-24T13:44:28.672Z,16.52
2022-10-24T13:47:19.931Z,16.50
2022-10-24T13:49:53.460Z,16.48
2022-10-24T13:52:49.153Z,16.49
2022-10-24T13:55:23.807Z,16.49
2022-10-24T13:58:00.371Z,16.45
2022-10-24T14:00:39.614Z,16.47
2022-10-24T14:03:15.532Z,16.46
2022-10-24T14:05:51.654Z,16.40
2022-10-24T14:08:33.761Z,16.38
2022-10-24T14:11:04.702Z,16.34
2022-10-24T14:13:33.934Z,16.30
2022-10-24T14:16:03.501Z,16.31
2022-10-24T14:18:30.943Z,16.28
2022-10-24T14:21:00.692Z,16.25
2022-10-24T14:23:30.971Z,16.26
2022-10-24T14:26:02.033Z,16.18
2022-10-24T14:28:30.384Z,16.16
2022-10-24T14:31:02.597Z,16.15
2022-10-24T14:33:41.590Z,16.13
2022-10-24T14:36:08.774Z,16.16
2022-10-24T14:38:36.190Z,16.18
2022-10-24T14:41:09.029Z,16.17
2022-10-24T14:43:41.087Z,16.23
2022-10-24T14:46:13.558Z,16.26
2022-10-24T14:48:42.980Z,16.28
2022-10-24T14:51:18.942Z,16.28
2022-10-24T14:53:46.079Z,16.30
2022-10-24T14:56:36.502Z,16.33
2022-10-24T14:59:06.495Z,16.26
2022-10-24T15:01:33.142Z,16.28
2022-10-24T15:04:02.469Z,16.25
2022-10-24T15:06:37.809Z,16.25
2022-10-24T15:09:24.687Z,16.23
2022-10-24T15:12:01.916Z,16.22
2022-10-24T15:14:47.548Z,16.20
2022-10-24T15:17:16.978Z,16.21
2022-10-24T15:19:45.968Z,16.18
2022-10-24T15:22:26.864Z,16.20
2022-10-24T15:24:55.601Z,16.20
2022-10-24T15:27:27.466Z,16.20
2022-10-24T15:29:54.365Z,16.26
2022-10-24T15:32:20.831Z,16.23
2022-10-24T15:34:47.318Z,16.20
2022-10-24T15:37:23.445Z,16.19
2022-10-24T15:39:52.643Z,16.17
2022-10-24T15:42:21.602Z,16.11
2022-10-24T15:44:49.165Z,16.14
2022-10-24T15:47:15.677Z,16.10
2022-10-24T15:49:42.122Z,16.09
2022-10-24T15:52:15.479Z,15.99
2022-10-24T15:54:42.086Z,16.04
2022-10-24T15:57:12.649Z,16.02
2022-10-24T15:59:39.564Z,16.03
2022-10-24T16:02:16.086Z,15.99
2022-10-24T16:04:42.654Z,15.96
2022-10-24T16:07:10.471Z,16.00
2022-10-24T16:09:37.258Z,15.96
2022-10-24T16:12:03.857Z,15.98
2022-10-24T16:14:30.421Z,15.96
2022-10-24T16:16:57.125Z,15.92
2022-10-24T16:19:26.330Z,15.92
2022-10-24T16:21:54.311Z,15.93
2022-10-24T16:24:20.720Z,15.91
2022-10-24T16:26:47.104Z,15.89
2022-10-24T16:29:13.490Z,15.94
2022-10-24T16:31:39.971Z,15.88
2022-10-24T16:34:07.265Z,15.88
2022-10-24T16:36:33.887Z,15.87
2022-10-24T16:39:00.510Z,15.84
2022-10-24T16:41:27.334Z,15.81
2022-10-24T16:43:56.136Z,15.80
2022-10-24T16:46:24.030Z,15.72
2022-10-24T16:48:50.599Z,15.71
2022-10-24T16:51:20.002Z,15.66
2022-10-24T16:53:46.394Z,15.63
2022-10-24T16:56:15.465Z,15.63
2022-10-24T16:58:42.159Z,15.58
2022-10-24T17:01:12.420Z,15.57
2022-10-24T17:03:42.129Z,15.54
2022-10-24T17:06:09.046Z,15.52
2022-10-24T17:08:35.526Z,15.46
2022-10-24T17:11:02.025Z,15.41
2022-10-24T17:13:29.047Z,15.40
2022-10-24T17:15:56.465Z,15.34
2022-10-24T17:18:25.251Z,15.30
2022-10-24T17:20:54.393Z,15.27
2022-10-24T17:23:22.820Z,15.22
2022-10-24T17:25:49.448Z,15.30
2022-10-24T17:28:16.408Z,15.26
2022-10-24T17:30:43.493Z,15.17
2022-10-24T17:33:11.412Z,15.22
2022-10-24T17:35:42.085Z,15.14
2022-10-24T17:38:22.050Z,15.17
2022-10-24T17:40:49.495Z,15.12
2022-10-24T17:43:23.246Z,15.10
2022-10-24T17:45:49.966Z,15.06
2022-10-24T17:48:17.291Z,15.08
2022-10-24T17:50:44.364Z,15.07
2022-10-24T17:53:15.263Z,15.06
2022-10-24T17:55:47.185Z,15.10
2022-10-24T17:58:15.553Z,15.07
2022-10-24T18:00:42.776Z,15.12
2022-10-24T18:03:09.409Z,15.05
2022-10-24T18:05:38.069Z,15.06
2022-10-24T18:08:23.884Z,15.04
2022-10-24T18:10:51.132Z,14.93
2022-10-24T18:13:18.174Z,15.04
2022-10-24T18:16:03.350Z,15.02
2022-10-24T18:18:30.297Z,14.92
2022-10-24T18:21:10.603Z,14.94
2022-10-24T18:23:38.363Z,14.95
2022-10-24T18:26:31.466Z,14.81
2022-10-24T18:28:58.625Z,14.99
2022-10-24T18:31:27.839Z,14.96
2022-10-24T18:34:04.735Z,14.93
2022-10-24T18:36:41.682Z,14.87
2022-10-24T18:39:10.165Z,14.84
2022-10-24T18:41:46.622Z,14.79
2022-10-24T18:44:23.201Z,14.82
2022-10-24T18:46:57.229Z,14.80
2022-10-24T18:49:24.108Z,14.79
2022-10-24T18:52:03.852Z,14.71
2022-10-24T18:54:30.782Z,14.57
2022-10-24T18:56:59.021Z,14.47
2022-10-24T18:59:25.835Z,14.52
2022-10-24T19:02:19.413Z,14.53
2022-10-24T19:05:01.431Z,14.46
2022-10-24T19:07:55.224Z,14.34
2022-10-24T19:10:30.545Z,14.39
2022-10-24T19:13:04.345Z,14.30
2022-10-24T19:15:31.448Z,14.29
2022-10-24T19:18:00.804Z,14.28
2022-10-24T19:20:35.720Z,14.22
2022-10-24T19:23:05.533Z,14.14
2022-10-24T19:25:40.509Z,14.30
2022-10-24T19:28:14.322Z,14.32
2022-10-24T19:30:50.243Z,14.37
2022-10-24T19:33:19.018Z,14.35
2022-10-24T19:36:01.535Z,14.40
2022-10-24T19:38:32.745Z,14.58
2022-10-24T19:41:03.102Z,14.59
2022-10-24T19:43:34.860Z,14.63
2022-10-24T19:46:18.742Z,14.63
2022-10-24T19:48:48.943Z,14.67
2022-10-24T19:51:18.990Z,14.71
2022-10-24T19:53:56.944Z,14.83
2022-10-24T19:56:26.175Z,14.80
2022-10-24T19:58:53.927Z,14.81
2022-10-24T20:01:23.546Z,14.77
2022-10-24T20:03:51.302Z,14.85
2022-10-24T20:06:19.171Z,14.83
2022-10-24T20:08:46.988Z,14.85
2022-10-24T20:11:15.522Z,14.89
2022-10-24T20:13:42.902Z,14.82
2022-10-24T20:16:10.505Z,14.83
2022-10-24T20:18:38.371Z,14.81
2022-10-24T20:21:07.759Z,14.76
2022-10-24T20:23:35.616Z,14.68
2022-10-24T20:26:07.459Z,14.73
2022-10-24T20:28:43.207Z,14.74
2022-10-24T20:31:21.559Z,14.68
2022-10-24T20:33:48.701Z,14.69
2022-10-24T20:36:15.073Z,14.56
2022-10-24T20:38:41.638Z,14.59
2022-10-24T20:41:08.444Z,14.61
2022-10-24T20:43:34.832Z,14.52
2022-10-24T20:46:05.057Z,14.55
2022-10-24T20:48:35.071Z,14.53
2022-10-24T20:51:10.768Z,14.58
2022-10-24T20:53:37.625Z,14.55
2022-10-24T20:56:06.409Z,14.45
2022-10-24T20:58:35.467Z,14.52
2022-10-24T21:01:26.269Z,14.40
2022-10-24T21:03:53.731Z,14.27
2022-10-24T21:06:23.030Z,14.29
2022-10-24T21:08:51.032Z,14.25
2022-10-24T21:11:24.563Z,14.23
2022-10-24T21:13:59.397Z,14.14
2022-10-24T21:16:26.539Z,14.06
2022-10-24T21:18:53.747Z,13.94
2022-10-24T21:21:21.115Z,13.94
2022-10-24T21:23:52.849Z,13.97
2022-10-24T21:26:20.120Z,13.97
2022-10-24T21:28:46.589Z,13.84
2022-10-24T21:31:15.556Z,13.83
2022-10-24T21:33:42.390Z,13.78
2022-10-24T21:36:11.841Z,13.67
2022-10-24T21:38:38.545Z,13.64
2022-10-24T21:41:07.374Z,13.69
2022-10-24T21:43:36.093Z,13.64
2022-10-24T21:46:18.577Z,13.74
2022-10-24T21:48:46.301Z,13.66
2022-10-24T21:51:21.576Z,13.67
2022-10-24T21:53:53.506Z,13.73
2022-10-24T21:56:22.373Z,13.75
2022-10-24T21:58:50.693Z,13.71
2022-10-24T22:01:20.049Z,13.75
2022-10-24T22:03:46.720Z,13.62
2022-10-24T22:06:16.603Z,13.73
2022-10-24T22:08:43.912Z,13.76
2022-10-24T22:11:12.830Z,13.74
2022-10-24T22:13:39.778Z,13.70
2022-10-24T22:16:07.980Z,13.74
2022-10-24T22:18:35.490Z,13.74
2022-10-24T22:21:03.004Z,13.80
2022-10-24T22:23:29.848Z,13.83
2022-10-24T22:25:58.032Z,13.84
2022-10-24T22:28:25.031Z,13.88
2022-10-24T22:30:51.801Z,13.83
2022-10-24T22:33:35.118Z,13.87
2022-10-24T22:36:17.866Z,13.90
2022-10-24T22:38:44.429Z,13.84
2022-10-24T22:41:11.137Z,13.83
2022-10-24T22:43:38.232Z,13.84
2022-10-24T22:46:32.598Z,13.85
2022-10-24T22:49:13.398Z,13.76
2022-10-24T22:51:40.054Z,13.81
2022-10-24T22:54:16.613Z,13.83
2022-10-24T22:56:43.327Z,13.79
2022-10-24T22:59:10.004Z,13.83
2022-10-24T23:01:54.793Z,13.83
2022-10-24T23:04:29.736Z,13.76
2022-10-24T23:07:02.626Z,13.76
2022-10-24T23:09:29.006Z,13.72
2022-10-24T23:11:55.709Z,13.72
2022-10-24T23:14:22.335Z,13.78
2022-10-24T23:16:58.803Z,13.77
2022-10-24T23:19:27.927Z,13.82
2022-10-24T23:22:11.381Z,13.84
2022-10-24T23:24:38.013Z,13.92
2022-10-24T23:27:13.242Z,13.93
2022-10-24T23:29:45.949Z,13.89
2022-10-24T23:32:22.873Z,13.95
2022-10-24T23:34:50.294Z,13.94
2022-10-24T23:37:38.556Z,14.02
2022-10-24T23:40:24.824Z,14.01
2022-10-24T23:42:52.306Z,14.00
2022-10-24T23:45:21.951Z,14.00
2022-10-24T23:48:03.330Z,14.01
2022-10-24T23:51:08.470Z,14.03
2022-10-24T23:53:53.594Z,14.00
2022-10-24T23:56:25.498Z,14.03
2022-10-24T23:58:52.179Z,14.01
